sensor_id;sensor_type;location;lat;lon;timestamp;pressure;altitude;pressure_sealevel;temperature;humidity
31761;BME280;18335;51.486;7.562;2023-09-19T00:00:21;99471.66;;;17.43;100.00
31761;BME280;18335;51.486;7.562;2023-09-19T00:02:53;99459.09;;;17.47;100.00
31761;BME280;18335;51.486;7.562;2023-09-19T00:05:25;99471.13;;;17.34;100.00
31761;BME280;18335;51.486;7.562;2023-09-19T00:07:54;99472.97;;;17.40;100.00
31761;BME280;18335;51.486;7.562;2023-09-19T00:10:22;99471.09;;;17.16;100.00
31761;BME280;18335;51.486;7.562;2023-09-19T00:12:50;99473.78;;;16.98;100.00
31761;BME280;18335;51.486;7.562;2023-09-19T00:15:18;99475.13;;;16.64;100.00
31761;BME280;18335;51.486;7.562;2023-09-19T00:17:47;99479.84;;;16.82;100.00
31761;BME280;18335;51.486;7.562;2023-09-19T00:20:14;99479.09;;;16.75;100.00
31761;BME280;18335;51.486;7.562;2023-09-19T00:22:43;99483.97;;;16.97;100.00
31761;BME280;18335;51.486;7.562;2023-09-19T00:25:10;99482.97;;;16.92;100.00
31761;BME280;18335;51.486;7.562;2023-09-19T00:27:38;99483.97;;;16.97;100.00
31761;BME280;18335;51.486;7.562;2023-09-19T00:30:08;99485.25;;;16.95;100.00
31761;BME280;18335;51.486;7.562;2023-09-19T00:32:40;99484.91;;;16.85;100.00
31761;BME280;18335;51.486;7.562;2023-09-19T00:35:08;99499.59;;;16.79;100.00
31761;BME280;18335;51.486;7.562;2023-09-19T00:37:36;99481.44;;;16.96;100.00
31761;BME280;18335;51.486;7.562;2023-09-19T00:40:03;99488.63;;;16.97;100.00
31761;BME280;18335;51.486;7.562;2023-09-19T00:42:31;99489.44;;;17.04;100.00
31761;BME280;18335;51.486;7.562;2023-09-19T00:44:59;99500.50;;;16.97;100.00
31761;BME280;18335;51.486;7.562;2023-09-19T00:47:29;99496.75;;;16.92;100.00
31761;BME280;18335;51.486;7.562;2023-09-19T00:49:56;99501.75;;;17.26;100.00
31761;BME280;18335;51.486;7.562;2023-09-19T00:52:25;99502.75;;;16.82;100.00
31761;BME280;18335;51.486;7.562;2023-09-19T00:54:54;99504.19;;;16.85;100.00
31761;BME280;18335;51.486;7.562;2023-09-19T00:57:20;99502.53;;;16.84;100.00
31761;BME280;18335;51.486;7.562;2023-09-19T00:59:50;99518.31;;;16.70;100.00
31761;BME280;18335;51.486;7.562;2023-09-19T01:02:21;99514.38;;;16.59;100.00
31761;BME280;18335;51.486;7.562;2023-09-19T01:04:48;99521.28;;;16.69;100.00
31761;BME280;18335;51.486;7.562;2023-09-19T01:07:15;99512.13;;;16.75;100.00
31761;BME280;18335;51.486;7.562;2023-09-19T01:09:43;99521.38;;;16.55;100.00
31761;BME280;18335;51.486;7.562;2023-09-19T01:12:12;99512.19;;;16.68;100.00
31761;BME280;18335;51.486;7.562;2023-09-19T01:14:51;99503.88;;;16.75;100.00
31761;BME280;18335;51.486;7.562;2023-09-19T01:17:27;99520.28;;;16.63;100.00
31761;BME280;18335;51.486;7.562;2023-09-19T01:20:10;99526.75;;;16.75;100.00
31761;BME280;18335;51.486;7.562;2023-09-19T01:22:48;99513.34;;;16.47;100.00
31761;BME280;18335;51.486;7.562;2023-09-19T01:25:40;99530.88;;;16.59;100.00
31761;BME280;18335;51.486;7.562;2023-09-19T01:28:39;99522.28;;;16.81;100.00
31761;BME280;18335;51.486;7.562;2023-09-19T01:31:11;99520.88;;;16.65;100.00
31761;BME280;18335;51.486;7.562;2023-09-19T01:33:59;99531.47;;;16.24;100.00
31761;BME280;18335;51.486;7.562;2023-09-19T01:36:28;99534.97;;;16.44;100.00
31761;BME280;18335;51.486;7.562;2023-09-19T01:38:57;99540.16;;;16.27;100.00
31761;BME280;18335;51.486;7.562;2023-09-19T01:41:54;99551.34;;;16.32;100.00
31761;BME280;18335;51.486;7.562;2023-09-19T01:44:29;99550.91;;;16.35;100.00
31761;BME280;18335;51.486;7.562;2023-09-19T01:47:04;99551.09;;;16.34;100.00
31761;BME280;18335;51.486;7.562;2023-09-19T01:49:38;99554.94;;;16.33;100.00
31761;BME280;18335;51.486;7.562;2023-09-19T01:52:12;99560.69;;;16.25;100.00
31761;BME280;18335;51.486;7.562;2023-09-19T01:54:46;99560.06;;;16.23;100.00
31761;BME280;18335;51.486;7.562;2023-09-19T01:57:20;99564.41;;;16.43;100.00
31761;BME280;18335;51.486;7.562;2023-09-19T01:59:52;99566.53;;;16.54;100.00
31761;BME280;18335;51.486;7.562;2023-09-19T02:02:25;99561.88;;;16.48;100.00
31761;BME280;18335;51.486;7.562;2023-09-19T02:04:54;99571.63;;;16.38;100.00
31761;BME280;18335;51.486;7.562;2023-09-19T02:07:24;99560.00;;;16.42;100.00
31761;BME280;18335;51.486;7.562;2023-09-19T02:09:52;99556.72;;;16.14;100.00
31761;BME280;18335;51.486;7.562;2023-09-19T02:12:20;99570.44;;;16.27;100.00
31761;BME280;18335;51.486;7.562;2023-09-19T02:14:47;99567.84;;;16.32;100.00
31761;BME280;18335;51.486;7.562;2023-09-19T02:17:14;99574.53;;;15.98;100.00
31761;BME280;18335;51.486;7.562;2023-09-19T02:19:43;99566.66;;;16.22;100.00
31761;BME280;18335;51.486;7.562;2023-09-19T02:22:10;99561.38;;;16.14;100.00
31761;BME280;18335;51.486;7.562;2023-09-19T02:24:37;99563.25;;;16.20;100.00
31761;BME280;18335;51.486;7.562;2023-09-19T02:27:04;99570.78;;;16.37;100.00
31761;BME280;18335;51.486;7.562;2023-09-19T02:29:31;99580.03;;;15.98;100.00
31761;BME280;18335;51.486;7.562;2023-09-19T02:31:59;99585.38;;;15.93;100.00
31761;BME280;18335;51.486;7.562;2023-09-19T02:34:27;99589.00;;;15.81;100.00
31761;BME280;18335;51.486;7.562;2023-09-19T02:36:55;99592.41;;;15.57;100.00
31761;BME280;18335;51.486;7.562;2023-09-19T02:39:22;99594.09;;;15.38;100.00
31761;BME280;18335;51.486;7.562;2023-09-19T02:41:50;99587.25;;;16.06;100.00
31761;BME280;18335;51.486;7.562;2023-09-19T02:44:16;99581.69;;;16.64;100.00
31761;BME280;18335;51.486;7.562;2023-09-19T02:46:45;99592.53;;;16.58;100.00
31761;BME280;18335;51.486;7.562;2023-09-19T02:49:12;99584.44;;;16.64;100.00
31761;BME280;18335;51.486;7.562;2023-09-19T02:51:39;99577.13;;;17.13;100.00
31761;BME280;18335;51.486;7.562;2023-09-19T02:54:08;99591.28;;;15.97;100.00
31761;BME280;18335;51.486;7.562;2023-09-19T02:56:35;99583.13;;;17.04;100.00
31761;BME280;18335;51.486;7.562;2023-09-19T02:59:02;99587.28;;;16.88;100.00
31761;BME280;18335;51.486;7.562;2023-09-19T03:01:30;99596.88;;;16.28;100.00
31761;BME280;18335;51.486;7.562;2023-09-19T03:03:58;99594.22;;;16.09;100.00
31761;BME280;18335;51.486;7.562;2023-09-19T03:06:24;99596.00;;;16.34;100.00
31761;BME280;18335;51.486;7.562;2023-09-19T03:08:51;99590.81;;;17.02;100.00
31761;BME280;18335;51.486;7.562;2023-09-19T03:11:22;99597.00;;;16.91;100.00
31761;BME280;18335;51.486;7.562;2023-09-19T03:13:52;99601.81;;;16.13;100.00
31761;BME280;18335;51.486;7.562;2023-09-19T03:16:20;99601.69;;;15.82;100.00
31761;BME280;18335;51.486;7.562;2023-09-19T03:18:50;99610.72;;;16.15;100.00
31761;BME280;18335;51.486;7.562;2023-09-19T03:21:17;99616.25;;;15.89;100.00
31761;BME280;18335;51.486;7.562;2023-09-19T03:23:45;99625.34;;;15.96;100.00
31761;BME280;18335;51.486;7.562;2023-09-19T03:26:13;99619.91;;;15.70;100.00
31761;BME280;18335;51.486;7.562;2023-09-19T03:28:43;99629.41;;;15.87;100.00
31761;BME280;18335;51.486;7.562;2023-09-19T03:31:12;99618.63;;;16.43;100.00
31761;BME280;18335;51.486;7.562;2023-09-19T03:33:39;99617.78;;;15.65;100.00
31761;BME280;18335;51.486;7.562;2023-09-19T03:36:05;99624.97;;;15.46;100.00
31761;BME280;18335;51.486;7.562;2023-09-19T03:38:33;99623.94;;;15.74;100.00
31761;BME280;18335;51.486;7.562;2023-09-19T03:41:00;99618.81;;;15.90;100.00
31761;BME280;18335;51.486;7.562;2023-09-19T03:43:27;99615.38;;;16.15;100.00
31761;BME280;18335;51.486;7.562;2023-09-19T03:45:56;99617.69;;;16.18;100.00
31761;BME280;18335;51.486;7.562;2023-09-19T03:48:23;99618.38;;;15.93;100.00
31761;BME280;18335;51.486;7.562;2023-09-19T03:50:51;99615.59;;;16.64;100.00
31761;BME280;18335;51.486;7.562;2023-09-19T03:53:19;99614.09;;;16.11;100.00
31761;BME280;18335;51.486;7.562;2023-09-19T03:55:46;99616.94;;;15.78;100.00
31761;BME280;18335;51.486;7.562;2023-09-19T03:58:13;99605.56;;;16.25;100.00
31761;BME280;18335;51.486;7.562;2023-09-19T04:00:40;99611.25;;;16.37;100.00
31761;BME280;18335;51.486;7.562;2023-09-19T04:03:08;99613.69;;;16.07;100.00
31761;BME280;18335;51.486;7.562;2023-09-19T04:05:36;99611.88;;;16.45;100.00
31761;BME280;18335;51.486;7.562;2023-09-19T04:08:03;99612.75;;;16.39;100.00
31761;BME280;18335;51.486;7.562;2023-09-19T04:10:30;99608.97;;;16.27;100.00
31761;BME280;18335;51.486;7.562;2023-09-19T04:12:57;99613.06;;;15.92;100.00
31761;BME280;18335;51.486;7.562;2023-09-19T04:15:24;99615.44;;;15.88;100.00
31761;BME280;18335;51.486;7.562;2023-09-19T04:17:53;99618.59;;;15.92;100.00
31761;BME280;18335;51.486;7.562;2023-09-19T04:20:21;99614.59;;;15.94;100.00
31761;BME280;18335;51.486;7.562;2023-09-19T04:22:49;99620.09;;;15.88;100.00
31761;BME280;18335;51.486;7.562;2023-09-19T04:25:16;99616.50;;;15.87;100.00
31761;BME280;18335;51.486;7.562;2023-09-19T04:27:44;99611.22;;;15.86;100.00
31761;BME280;18335;51.486;7.562;2023-09-19T04:30:12;99613.75;;;15.87;100.00
31761;BME280;18335;51.486;7.562;2023-09-19T04:32:40;99617.53;;;15.93;100.00
31761;BME280;18335;51.486;7.562;2023-09-19T04:35:08;99621.13;;;16.00;100.00
31761;BME280;18335;51.486;7.562;2023-09-19T04:37:40;99617.00;;;16.29;100.00
31761;BME280;18335;51.486;7.562;2023-09-19T04:40:08;99619.91;;;16.40;100.00
31761;BME280;18335;51.486;7.562;2023-09-19T04:42:39;99626.31;;;16.28;100.00
31761;BME280;18335;51.486;7.562;2023-09-19T04:45:07;99618.16;;;16.66;100.00
31761;BME280;18335;51.486;7.562;2023-09-19T04:47:36;99630.34;;;16.32;100.00
31761;BME280;18335;51.486;7.562;2023-09-19T04:50:06;99627.00;;;16.10;100.00
31761;BME280;18335;51.486;7.562;2023-09-19T04:52:33;99621.44;;;16.36;100.00
31761;BME280;18335;51.486;7.562;2023-09-19T04:55:01;99629.53;;;16.18;100.00
31761;BME280;18335;51.486;7.562;2023-09-19T04:57:29;99624.34;;;16.54;100.00
31761;BME280;18335;51.486;7.562;2023-09-19T04:59:57;99627.16;;;16.35;100.00
31761;BME280;18335;51.486;7.562;2023-09-19T05:02:24;99623.06;;;16.57;100.00
31761;BME280;18335;51.486;7.562;2023-09-19T05:04:50;99631.53;;;15.91;100.00
31761;BME280;18335;51.486;7.562;2023-09-19T05:07:19;99631.47;;;16.11;100.00
31761;BME280;18335;51.486;7.562;2023-09-19T05:09:47;99638.25;;;16.02;100.00
31761;BME280;18335;51.486;7.562;2023-09-19T05:12:15;99637.03;;;15.91;100.00
31761;BME280;18335;51.486;7.562;2023-09-19T05:14:45;99639.97;;;15.90;100.00
31761;BME280;18335;51.486;7.562;2023-09-19T05:17:13;99645.09;;;15.80;100.00
31761;BME280;18335;51.486;7.562;2023-09-19T05:19:42;99650.78;;;15.85;100.00
31761;BME280;18335;51.486;7.562;2023-09-19T05:22:09;99655.66;;;15.76;100.00
31761;BME280;18335;51.486;7.562;2023-09-19T05:24:35;99664.53;;;15.91;100.00
31761;BME280;18335;51.486;7.562;2023-09-19T05:27:03;99657.53;;;16.02;100.00
31761;BME280;18335;51.486;7.562;2023-09-19T05:29:34;99660.09;;;15.84;100.00
31761;BME280;18335;51.486;7.562;2023-09-19T05:32:01;99678.06;;;15.93;100.00
31761;BME280;18335;51.486;7.562;2023-09-19T05:34:29;99682.53;;;15.94;100.00
31761;BME280;18335;51.486;7.562;2023-09-19T05:36:56;99686.50;;;15.98;100.00
31761;BME280;18335;51.486;7.562;2023-09-19T05:39:22;99692.44;;;16.01;100.00
31761;BME280;18335;51.486;7.562;2023-09-19T05:41:49;99698.16;;;16.07;100.00
31761;BME280;18335;51.486;7.562;2023-09-19T05:44:16;99699.25;;;15.79;100.00
31761;BME280;18335;51.486;7.562;2023-09-19T05:46:44;99698.38;;;15.92;100.00
31761;BME280;18335;51.486;7.562;2023-09-19T05:49:13;99706.81;;;16.23;100.00
31761;BME280;18335;51.486;7.562;2023-09-19T05:51:41;99700.28;;;15.98;100.00
31761;BME280;18335;51.486;7.562;2023-09-19T05:54:08;99709.19;;;15.87;100.00
31761;BME280;18335;51.486;7.562;2023-09-19T05:56:36;99708.75;;;16.03;100.00
31761;BME280;18335;51.486;7.562;2023-09-19T05:59:03;99717.88;;;16.03;100.00
31761;BME280;18335;51.486;7.562;2023-09-19T06:01:30;99725.66;;;16.13;100.00
31761;BME280;18335;51.486;7.562;2023-09-19T06:03:59;99710.22;;;16.05;100.00
31761;BME280;18335;51.486;7.562;2023-09-19T06:06:26;99711.47;;;16.29;100.00
31761;BME280;18335;51.486;7.562;2023-09-19T06:08:53;99726.69;;;16.25;100.00
31761;BME280;18335;51.486;7.562;2023-09-19T06:11:20;99726.75;;;16.12;100.00
31761;BME280;18335;51.486;7.562;2023-09-19T06:13:47;99724.97;;;16.50;100.00
31761;BME280;18335;51.486;7.562;2023-09-19T06:16:13;99718.84;;;16.48;100.00
31761;BME280;18335;51.486;7.562;2023-09-19T06:18:40;99712.66;;;16.53;100.00
31761;BME280;18335;51.486;7.562;2023-09-19T06:21:08;99716.25;;;16.53;100.00
31761;BME280;18335;51.486;7.562;2023-09-19T06:23:35;99714.84;;;16.25;100.00
31761;BME280;18335;51.486;7.562;2023-09-19T06:26:02;99719.09;;;16.27;100.00
31761;BME280;18335;51.486;7.562;2023-09-19T06:28:32;99717.41;;;16.13;100.00
31761;BME280;18335;51.486;7.562;2023-09-19T06:30:59;99712.06;;;16.57;100.00
31761;BME280;18335;51.486;7.562;2023-09-19T06:33:25;99716.50;;;16.45;100.00
31761;BME280;18335;51.486;7.562;2023-09-19T06:35:52;99714.56;;;16.52;100.00
31761;BME280;18335;51.486;7.562;2023-09-19T06:38:26;99718.34;;;16.71;100.00
31761;BME280;18335;51.486;7.562;2023-09-19T06:40:52;99731.84;;;16.86;100.00
31761;BME280;18335;51.486;7.562;2023-09-19T06:43:19;99717.63;;;16.89;100.00
31761;BME280;18335;51.486;7.562;2023-09-19T06:45:46;99716.06;;;16.62;100.00
31761;BME280;18335;51.486;7.562;2023-09-19T06:48:13;99721.97;;;16.72;100.00
31761;BME280;18335;51.486;7.562;2023-09-19T06:50:40;99733.78;;;16.79;100.00
31761;BME280;18335;51.486;7.562;2023-09-19T06:53:07;99717.38;;;16.97;100.00
31761;BME280;18335;51.486;7.562;2023-09-19T06:55:36;99733.00;;;16.52;100.00
31761;BME280;18335;51.486;7.562;2023-09-19T06:58:03;99732.72;;;16.86;100.00
31761;BME280;18335;51.486;7.562;2023-09-19T07:00:31;99730.38;;;16.83;100.00
31761;BME280;18335;51.486;7.562;2023-09-19T07:03:00;99734.13;;;17.02;100.00
31761;BME280;18335;51.486;7.562;2023-09-19T07:05:29;99736.06;;;16.95;100.00
31761;BME280;18335;51.486;7.562;2023-09-19T07:07:57;99743.41;;;17.14;100.00
31761;BME280;18335;51.486;7.562;2023-09-19T07:10:24;99737.69;;;17.09;100.00
31761;BME280;18335;51.486;7.562;2023-09-19T07:12:59;99723.56;;;16.92;100.00
31761;BME280;18335;51.486;7.562;2023-09-19T07:15:26;99729.06;;;16.99;100.00
31761;BME280;18335;51.486;7.562;2023-09-19T07:17:56;99731.25;;;17.22;100.00
31761;BME280;18335;51.486;7.562;2023-09-19T07:20:24;99728.72;;;17.20;100.00
31761;BME280;18335;51.486;7.562;2023-09-19T07:22:52;99725.75;;;17.22;100.00
31761;BME280;18335;51.486;7.562;2023-09-19T07:25:20;99735.13;;;17.45;100.00
31761;BME280;18335;51.486;7.562;2023-09-19T07:27:47;99731.38;;;17.33;100.00
31761;BME280;18335;51.486;7.562;2023-09-19T07:30:15;99735.72;;;17.23;100.00
31761;BME280;18335;51.486;7.562;2023-09-19T07:32:42;99746.41;;;17.44;100.00
31761;BME280;18335;51.486;7.562;2023-09-19T07:35:09;99744.22;;;17.52;100.00
31761;BME280;18335;51.486;7.562;2023-09-19T07:37:37;99743.25;;;17.40;100.00
31761;BME280;18335;51.486;7.562;2023-09-19T07:40:05;99752.41;;;17.34;100.00
31761;BME280;18335;51.486;7.562;2023-09-19T07:42:33;99746.75;;;17.60;100.00
31761;BME280;18335;51.486;7.562;2023-09-19T07:45:00;99752.84;;;17.94;100.00
31761;BME280;18335;51.486;7.562;2023-09-19T07:47:29;99748.06;;;17.83;100.00
31761;BME280;18335;51.486;7.562;2023-09-19T07:50:00;99745.91;;;17.85;100.00
31761;BME280;18335;51.486;7.562;2023-09-19T07:52:28;99742.72;;;17.88;100.00
31761;BME280;18335;51.486;7.562;2023-09-19T07:54:58;99747.09;;;17.95;100.00
31761;BME280;18335;51.486;7.562;2023-09-19T07:57:27;99748.59;;;17.66;100.00
31761;BME280;18335;51.486;7.562;2023-09-19T07:59:54;99747.63;;;17.54;100.00
31761;BME280;18335;51.486;7.562;2023-09-19T08:02:21;99746.59;;;18.05;100.00
31761;BME280;18335;51.486;7.562;2023-09-19T08:04:56;99744.47;;;18.07;100.00
31761;BME280;18335;51.486;7.562;2023-09-19T08:07:26;99746.44;;;18.00;100.00
31761;BME280;18335;51.486;7.562;2023-09-19T08:09:57;99744.38;;;18.38;100.00
31761;BME280;18335;51.486;7.562;2023-09-19T08:12:24;99754.44;;;18.08;100.00
31761;BME280;18335;51.486;7.562;2023-09-19T08:14:51;99746.19;;;18.51;100.00
31761;BME280;18335;51.486;7.562;2023-09-19T08:17:17;99755.38;;;18.20;100.00
31761;BME280;18335;51.486;7.562;2023-09-19T08:19:45;99766.78;;;17.74;100.00
31761;BME280;18335;51.486;7.562;2023-09-19T08:22:13;99754.06;;;18.22;100.00
31761;BME280;18335;51.486;7.562;2023-09-19T08:24:42;99754.19;;;17.85;100.00
31761;BME280;18335;51.486;7.562;2023-09-19T08:27:12;99760.59;;;18.28;100.00
31761;BME280;18335;51.486;7.562;2023-09-19T08:29:39;99762.91;;;18.31;100.00
31761;BME280;18335;51.486;7.562;2023-09-19T08:32:05;99769.13;;;18.51;100.00
31761;BME280;18335;51.486;7.562;2023-09-19T08:34:32;99767.06;;;18.40;100.00
31761;BME280;18335;51.486;7.562;2023-09-19T08:37:02;99778.88;;;18.54;100.00
31761;BME280;18335;51.486;7.562;2023-09-19T08:39:31;99787.50;;;18.39;100.00
31761;BME280;18335;51.486;7.562;2023-09-19T08:42:02;99790.03;;;18.84;100.00
31761;BME280;18335;51.486;7.562;2023-09-19T08:44:30;99778.38;;;18.14;100.00
31761;BME280;18335;51.486;7.562;2023-09-19T08:47:09;99781.88;;;18.46;100.00
31761;BME280;18335;51.486;7.562;2023-09-19T08:49:41;99779.81;;;18.66;100.00
31761;BME280;18335;51.486;7.562;2023-09-19T08:52:17;99785.88;;;18.56;100.00
31761;BME280;18335;51.486;7.562;2023-09-19T08:54:48;99785.63;;;18.58;100.00
31761;BME280;18335;51.486;7.562;2023-09-19T08:57:19;99780.66;;;18.85;100.00
31761;BME280;18335;51.486;7.562;2023-09-19T08:59:48;99791.03;;;19.07;100.00
31761;BME280;18335;51.486;7.562;2023-09-19T09:02:16;99777.88;;;19.03;100.00
31761;BME280;18335;51.486;7.562;2023-09-19T09:04:45;99781.41;;;19.28;100.00
31761;BME280;18335;51.486;7.562;2023-09-19T09:07:12;99777.00;;;19.39;100.00
31761;BME280;18335;51.486;7.562;2023-09-19T09:09:40;99789.47;;;19.29;100.00
31761;BME280;18335;51.486;7.562;2023-09-19T09:12:13;99782.25;;;19.47;100.00
31761;BME280;18335;51.486;7.562;2023-09-19T09:14:40;99781.34;;;18.98;100.00
31761;BME280;18335;51.486;7.562;2023-09-19T09:17:11;99783.84;;;19.36;100.00
31761;BME280;18335;51.486;7.562;2023-09-19T09:19:38;99771.88;;;19.42;100.00
31761;BME280;18335;51.486;7.562;2023-09-19T09:22:06;99775.94;;;19.40;100.00
31761;BME280;18335;51.486;7.562;2023-09-19T09:24:33;99780.03;;;19.67;100.00
31761;BME280;18335;51.486;7.562;2023-09-19T09:27:04;99777.97;;;19.62;100.00
31761;BME280;18335;51.486;7.562;2023-09-19T09:29:45;99780.09;;;19.30;100.00
31761;BME280;18335;51.486;7.562;2023-09-19T09:32:22;99769.34;;;19.70;100.00
31761;BME280;18335;51.486;7.562;2023-09-19T09:34:53;99770.00;;;19.54;100.00
31761;BME280;18335;51.486;7.562;2023-09-19T09:37:20;99766.13;;;19.85;100.00
31761;BME280;18335;51.486;7.562;2023-09-19T09:39:51;99764.06;;;19.80;100.00
31761;BME280;18335;51.486;7.562;2023-09-19T09:42:34;99764.19;;;19.74;100.00
31761;BME280;18335;51.486;7.562;2023-09-19T09:45:16;99763.84;;;19.94;100.00
31761;BME280;18335;51.486;7.562;2023-09-19T09:47:46;99763.59;;;19.83;100.00
31761;BME280;18335;51.486;7.562;2023-09-19T09:50:28;99750.75;;;20.01;100.00
31761;BME280;18335;51.486;7.562;2023-09-19T09:53:19;99759.59;;;19.68;100.00
31761;BME280;18335;51.486;7.562;2023-09-19T09:56:03;99760.69;;;19.78;100.00
31761;BME280;18335;51.486;7.562;2023-09-19T09:58:35;99748.78;;;19.89;100.00
31761;BME280;18335;51.486;7.562;2023-09-19T10:01:04;99756.88;;;20.03;100.00
31761;BME280;18335;51.486;7.562;2023-09-19T10:03:37;99768.09;;;20.19;100.00
31761;BME280;18335;51.486;7.562;2023-09-19T10:06:10;99754.09;;;19.91;100.00
31761;BME280;18335;51.486;7.562;2023-09-19T10:09:01;99755.63;;;20.28;100.00
31761;BME280;18335;51.486;7.562;2023-09-19T10:11:39;99747.03;;;20.07;100.00
31761;BME280;18335;51.486;7.562;2023-09-19T10:14:10;99756.09;;;20.25;100.00
31761;BME280;18335;51.486;7.562;2023-09-19T10:16:47;99750.66;;;20.19;100.00
31761;BME280;18335;51.486;7.562;2023-09-19T10:19:16;99736.69;;;20.25;100.00
31761;BME280;18335;51.486;7.562;2023-09-19T10:21:47;99746.56;;;20.56;100.00
31761;BME280;18335;51.486;7.562;2023-09-19T10:24:15;99729.69;;;20.23;100.00
31761;BME280;18335;51.486;7.562;2023-09-19T10:26:43;99727.53;;;20.25;100.00
31761;BME280;18335;51.486;7.562;2023-09-19T10:29:15;99735.13;;;20.53;100.00
31761;BME280;18335;51.486;7.562;2023-09-19T10:34:14;99736.47;;;20.38;100.00
31761;BME280;18335;51.486;7.562;2023-09-19T10:36:44;99730.66;;;20.40;100.00
31761;BME280;18335;51.486;7.562;2023-09-19T10:39:14;99730.19;;;20.43;100.00
31761;BME280;18335;51.486;7.562;2023-09-19T10:41:49;99720.03;;;20.83;100.00
31761;BME280;18335;51.486;7.562;2023-09-19T10:44:21;99703.31;;;21.07;100.00
31761;BME280;18335;51.486;7.562;2023-09-19T10:46:52;99724.59;;;20.89;100.00
31761;BME280;18335;51.486;7.562;2023-09-19T10:49:21;99710.97;;;20.76;100.00
31761;BME280;18335;51.486;7.562;2023-09-19T10:51:51;99711.34;;;21.31;100.00
31761;BME280;18335;51.486;7.562;2023-09-19T10:54:25;99712.06;;;21.55;100.00
31761;BME280;18335;51.486;7.562;2023-09-19T10:56:54;99712.47;;;21.07;100.00
31761;BME280;18335;51.486;7.562;2023-09-19T10:59:24;99707.41;;;21.44;100.00
31761;BME280;18335;51.486;7.562;2023-09-19T11:01:58;99710.19;;;21.44;100.00
31761;BME280;18335;51.486;7.562;2023-09-19T11:04:28;99713.56;;;20.66;100.00
31761;BME280;18335;51.486;7.562;2023-09-19T11:07:04;99713.66;;;21.23;100.00
31761;BME280;18335;51.486;7.562;2023-09-19T11:09:47;99698.75;;;21.01;100.00
31761;BME280;18335;51.486;7.562;2023-09-19T11:21:53;99704.66;;;20.41;100.00
31761;BME280;18335;51.486;7.562;2023-09-19T11:24:32;99708.78;;;20.27;100.00
31761;BME280;18335;51.486;7.562;2023-09-19T11:27:14;99702.72;;;20.41;100.00
31761;BME280;18335;51.486;7.562;2023-09-19T11:29:43;99712.38;;;20.39;100.00
31761;BME280;18335;51.486;7.562;2023-09-19T11:32:10;99712.72;;;20.54;100.00
31761;BME280;18335;51.486;7.562;2023-09-19T11:34:42;99705.41;;;20.88;100.00
31761;BME280;18335;51.486;7.562;2023-09-19T11:40:38;99699.09;;;21.04;100.00
31761;BME280;18335;51.486;7.562;2023-09-19T11:43:29;99702.13;;;21.03;100.00
31761;BME280;18335;51.486;7.562;2023-09-19T11:46:03;99695.88;;;20.95;100.00
31761;BME280;18335;51.486;7.562;2023-09-19T11:48:31;99699.16;;;21.21;100.00
31761;BME280;18335;51.486;7.562;2023-09-19T11:50:58;99701.03;;;21.04;100.00
31761;BME280;18335;51.486;7.562;2023-09-19T11:53:31;99708.09;;;20.71;100.00
31761;BME280;18335;51.486;7.562;2023-09-19T11:56:07;99708.22;;;20.76;100.00
31761;BME280;18335;51.486;7.562;2023-09-19T11:58:37;99703.25;;;21.30;100.00
31761;BME280;18335;51.486;7.562;2023-09-19T12:01:05;99715.25;;;21.19;100.00
31761;BME280;18335;51.486;7.562;2023-09-19T12:03:42;99705.19;;;21.74;100.00
31761;BME280;18335;51.486;7.562;2023-09-19T12:06:12;99706.56;;;22.05;100.00
31761;BME280;18335;51.486;7.562;2023-09-19T12:08:40;99699.91;;;21.89;100.00
31761;BME280;18335;51.486;7.562;2023-09-19T12:11:17;99708.09;;;22.13;100.00
31761;BME280;18335;51.486;7.562;2023-09-19T12:13:47;99700.19;;;21.88;100.00
31761;BME280;18335;51.486;7.562;2023-09-19T12:16:18;99710.13;;;22.00;100.00
31761;BME280;18335;51.486;7.562;2023-09-19T12:18:50;99694.69;;;21.31;100.00
31761;BME280;18335;51.486;7.562;2023-09-19T12:21:27;99696.22;;;21.11;100.00
31761;BME280;18335;51.486;7.562;2023-09-19T12:24:07;99687.56;;;21.24;100.00
31761;BME280;18335;51.486;7.562;2023-09-19T12:26:43;99686.56;;;21.58;100.00
31761;BME280;18335;51.486;7.562;2023-09-19T12:29:14;99679.66;;;21.89;100.00
31761;BME280;18335;51.486;7.562;2023-09-19T12:31:50;99679.75;;;21.49;100.00
31761;BME280;18335;51.486;7.562;2023-09-19T12:34:20;99680.28;;;21.79;100.00
31761;BME280;18335;51.486;7.562;2023-09-19T12:36:48;99687.03;;;21.10;100.00
31761;BME280;18335;51.486;7.562;2023-09-19T12:39:24;99684.78;;;20.95;100.00
31761;BME280;18335;51.486;7.562;2023-09-19T12:41:53;99683.72;;;21.53;100.00
31761;BME280;18335;51.486;7.562;2023-09-19T12:44:20;99668.28;;;21.29;100.00
31761;BME280;18335;51.486;7.562;2023-09-19T12:46:50;99679.47;;;21.34;100.00
31761;BME280;18335;51.486;7.562;2023-09-19T12:49:17;99674.34;;;21.42;100.00
31761;BME280;18335;51.486;7.562;2023-09-19T12:51:46;99666.38;;;21.63;100.00
31761;BME280;18335;51.486;7.562;2023-09-19T12:54:13;99662.78;;;21.62;100.00
31761;BME280;18335;51.486;7.562;2023-09-19T12:56:44;99652.41;;;21.41;100.00
31761;BME280;18335;51.486;7.562;2023-09-19T12:59:15;99647.78;;;21.46;100.00
31761;BME280;18335;51.486;7.562;2023-09-19T13:01:42;99636.31;;;21.43;100.00
31761;BME280;18335;51.486;7.562;2023-09-19T13:04:16;99644.91;;;21.75;100.00
31761;BME280;18335;51.486;7.562;2023-09-19T13:06:52;99641.88;;;21.60;100.00
31761;BME280;18335;51.486;7.562;2023-09-19T13:09:21;99640.88;;;21.66;100.00
31761;BME280;18335;51.486;7.562;2023-09-19T13:11:50;99644.75;;;21.81;100.00
31761;BME280;18335;51.486;7.562;2023-09-19T13:14:22;99645.94;;;21.52;100.00
31761;BME280;18335;51.486;7.562;2023-09-19T13:16:56;99653.09;;;21.65;100.00
31761;BME280;18335;51.486;7.562;2023-09-19T13:19:38;99648.63;;;21.47;100.00